CYMX/YMX METAR and TAF weather

Enter ICAO airport designator
Station Type Date Time Source
CYMX METAR 2021/05/15 23:00 UTC NOAA

CYMX 152300Z 21005KT 25SM FEW110 FEW250 22/M01 A3010 RMK AC2CI1 CI TR SLP194 DENSITY ALT 900FT


Station Type Date Time Source
CYMX Decoded METAR 2021/05/15 23:00 UTC NOAA

Montreal / Mirabel, Canada (CYMX) 45-41N 074-02W
May 15, 2021 - 07:00 PM EDT / 2021.05.15 2300 UTC
Wind: from the SSW (210 degrees) at 6 MPH (5 KT):0
Visibility: 25 mile(s):0
Sky conditions: mostly clear
Temperature: 71 F (22 C)
Dew Point: 30 F (-1 C)
Relative Humidity: 21%
Pressure (altimeter): 30.1 in. Hg (1019 hPa)
ob: CYMX 152300Z 21005KT 25SM FEW110 FEW250 22/M01 A3010 RMK AC2CI1 CI TR SLP194 DENSITY ALT 900FT
cycle: 23

Station Type Date Time Source
CYMX TAF 2021/05/15 18:45 UTC NOAA

TAF CYMX 151742Z 1518/1618 24010G20KT P6SM FEW050 SCT120 BKN240
FM160600 25005KT P6SM SCT080
TEMPO 1606/1610 P6SM -SHRA BKN080
BECMG 1608/1610 VRB03KT
RMK NXT FCST BY 160000Z

Example: see airport list